TimeEST,TemperatureF,Dew PointF,Humidity,Sea Level PressureIn,VisibilityMPH,Wind Direction,Wind SpeedMPH,Gust SpeedMPH,PrecipitationIn,Events,Conditions,WindDirDegrees,DateUTC
12:53 AM,26.1,3.0,37,30.12,10.0,West,16.1,28.8,N/A,,Scattered Clouds,280,2013-01-22 05:53:00
1:53 AM,25.0,3.9,41,30.13,10.0,West,17.3,25.3,N/A,,Scattered Clouds,280,2013-01-22 06:53:00
2:53 AM,23.0,3.9,44,30.15,10.0,West,15.0,23.0,N/A,,Scattered Clouds,280,2013-01-22 07:53:00
3:53 AM,21.9,3.0,44,30.16,10.0,WNW,15.0,-,N/A,,Scattered Clouds,290,2013-01-22 08:53:00
4:53 AM,19.9,1.9,46,30.17,10.0,West,12.7,-,N/A,,Scattered Clouds,260,2013-01-22 09:53:00
5:53 AM,19.9,1.0,44,30.18,10.0,West,10.4,-,N/A,,Clear,260,2013-01-22 10:53:00
6:53 AM,19.0,1.0,46,30.22,10.0,West,8.1,-,N/A,,Scattered Clouds,270,2013-01-22 11:53:00
7:53 AM,19.9,1.0,44,30.24,10.0,West,9.2,-,N/A,,Scattered Clouds,280,2013-01-22 12:53:00
8:53 AM,19.9,-2.0,38,30.26,10.0,WNW,9.2,-,N/A,,Partly Cloudy,300,2013-01-22 13:53:00
9:53 AM,21.9,-0.9,37,30.27,10.0,WSW,9.2,-,N/A,,Partly Cloudy,250,2013-01-22 14:53:00
10:53 AM,24.1,-2.0,32,30.29,10.0,West,15.0,19.6,N/A,,Partly Cloudy,260,2013-01-22 15:53:00
11:53 AM,26.1,-2.9,28,30.29,10.0,West,16.1,21.9,N/A,,Partly Cloudy,260,2013-01-22 16:53:00
12:53 PM,27.0,-2.9,27,30.26,10.0,WNW,11.5,20.7,N/A,,Clear,290,2013-01-22 17:53:00
1:53 PM,28.0,-2.9,26,30.24,10.0,West,15.0,23.0,N/A,,Clear,270,2013-01-22 18:53:00
2:53 PM,28.9,-5.1,23,30.23,10.0,WSW,19.6,24.2,N/A,,Clear,250,2013-01-22 19:53:00
3:53 PM,28.9,-2.9,25,30.23,10.0,WSW,10.4,-,N/A,,Clear,240,2013-01-22 20:53:00
4:53 PM,28.0,-5.1,24,30.25,10.0,West,13.8,-,N/A,,Partly Cloudy,260,2013-01-22 21:53:00
5:53 PM,26.1,-2.9,28,30.26,10.0,West,9.2,-,N/A,,Scattered Clouds,280,2013-01-22 22:53:00
6:53 PM,26.1,-0.9,31,30.25,10.0,West,5.8,-,N/A,,Mostly Cloudy,260,2013-01-22 23:53:00
7:53 PM,26.1,-0.9,31,30.26,10.0,West,5.8,-,N/A,,Mostly Cloudy,260,2013-01-23 00:53:00
8:53 PM,26.1,-2.9,28,30.28,10.0,West,10.4,-,N/A,,Mostly Cloudy,260,2013-01-23 01:53:00
9:53 PM,26.1,-2.0,30,30.28,10.0,WSW,8.1,-,N/A,,Mostly Cloudy,250,2013-01-23 02:53:00
10:53 PM,25.0,-2.9,30,30.27,10.0,West,6.9,-,N/A,,Mostly Cloudy,280,2013-01-23 03:53:00
11:53 PM,24.1,-2.0,32,30.27,10.0,West,10.4,-,N/A,,Mostly Cloudy,280,2013-01-23 04:53:00